Time;durP1;ratioP1;P1;durP2;ratioP2;P2;SDS_P1;SDS_P2;PMS_P1;PMS_P2;Temp;Humidity;BMP_temperature;BMP_pressure;BME280_temperature;BME280_humidity;BME280_pressure;Samples;Min_cycle;Max_cycle;Signal;HPM_P1;HPM_P2
2022/01/12 00:01:52;;;;;;;180.10;66.45;;;;;;;9.22;100.00;102502.13;5076494;28;20083;-49
2022/01/12 00:04:20;;;;;;;152.65;55.88;;;;;;;9.22;100.00;102515.34;5076879;28;20057;-50
2022/01/12 00:06:49;;;;;;;152.65;54.00;;;;;;;9.24;100.00;102516.19;5075662;28;20428;-49
2022/01/12 00:09:17;;;;;;;270.90;92.05;;;;;;;9.25;100.00;102504.69;5075505;28;20067;-50
2022/01/12 00:11:47;;;;;;;211.15;81.82;;;;;;;9.29;100.00;102518.72;5075810;28;20435;-49
2022/01/12 00:14:15;;;;;;;234.32;85.53;;;;;;;9.32;100.00;102528.38;5075587;28;20064;-50
2022/01/12 00:16:47;;;;;;;151.80;62.85;;;;;;;9.34;100.00;102526.56;5075769;28;20053;-49
2022/01/12 00:19:15;;;;;;;102.13;40.13;;;;;;;9.36;100.00;102530.03;5076553;28;20135;-51
2022/01/12 00:21:44;;;;;;;67.53;26.52;;;;;;;9.36;100.00;102519.44;5075677;28;20135;-51
2022/01/12 00:24:12;;;;;;;64.22;22.23;;;;;;;9.38;100.00;102512.31;5075929;28;20057;-50
2022/01/12 00:33:07;;;;;;;72.57;23.48;;;;;;;9.36;100.00;102498.25;5075395;28;20056;-49
2022/01/12 00:35:14;;;;;;;74.75;26.00;;;;;;;9.29;100.00;102509.00;5070988;28;20074;-51
2022/01/12 00:37:42;;;;;;;125.22;41.45;;;;;;;9.32;100.00;102502.75;5075026;28;20052;-49
2022/01/12 00:40:12;;;;;;;95.57;30.13;;;;;;;9.33;100.00;102498.31;5074996;28;20061;-51
2022/01/12 00:42:40;;;;;;;205.18;60.83;;;;;;;9.33;100.00;102514.22;5075236;28;20075;-49
2022/01/12 00:45:10;;;;;;;171.93;58.78;;;;;;;9.33;100.00;102519.50;5074632;28;20072;-51
2022/01/12 00:47:38;;;;;;;93.57;27.25;;;;;;;9.33;100.00;102516.88;5075472;28;20497;-51
2022/01/12 00:50:08;;;;;;;60.22;21.63;;;;;;;9.30;100.00;102510.75;5075527;28;20190;-50
2022/01/12 00:52:36;;;;;;;79.85;21.27;;;;;;;9.32;100.00;102509.84;5075049;28;20063;-49
2022/01/12 00:55:06;;;;;;;50.97;18.98;;;;;;;9.33;100.00;102514.22;5075648;28;20052;-50
2022/01/12 00:57:34;;;;;;;61.78;22.02;;;;;;;9.35;100.00;102507.13;5075000;28;20057;-51
2022/01/12 01:00:03;;;;;;;198.90;51.20;;;;;;;9.39;100.00;102511.44;5074644;28;20056;-51
2022/01/12 01:02:33;;;;;;;77.00;25.90;;;;;;;9.38;100.00;102512.31;5074621;28;20052;-49
2022/01/12 01:05:02;;;;;;;124.90;34.67;;;;;;;9.36;100.00;102519.44;5074333;28;20056;-51
2022/01/12 01:07:31;;;;;;;95.78;29.05;;;;;;;9.34;100.00;102518.63;5075659;28;20063;-49
2022/01/12 01:10:04;;;;;;;89.72;28.52;;;;;;;9.35;100.00;102523.88;5075115;28;20064;-49
2022/01/12 01:12:34;;;;;;;71.85;26.60;;;;;;;9.37;100.00;102529.16;5075023;28;20057;-48
2022/01/12 01:15:06;;;;;;;69.55;24.13;;;;;;;9.35;100.00;102525.66;5074512;28;20052;-49
2022/01/12 01:25:54;;;;;;;40.90;17.23;;;;;;;9.43;100.00;102542.22;5074353;28;20100;-51
2022/01/12 01:28:23;;;;;;;37.90;15.48;;;;;;;9.43;100.00;102539.56;5074576;28;20052;-51
2022/01/12 01:30:51;;;;;;;34.65;15.18;;;;;;;9.44;100.00;102538.66;5074176;28;20059;-50
2022/01/12 01:33:26;;;;;;;36.25;14.43;;;;;;;9.45;100.00;102545.72;5074907;28;20488;-50
2022/01/12 01:35:56;;;;;;;29.58;13.25;;;;;;;9.47;100.00;102543.91;5074828;28;20057;-51
2022/01/12 01:38:25;;;;;;;30.20;14.10;;;;;;;9.50;100.00;102546.47;5074227;28;20075;-51
2022/01/12 01:40:53;;;;;;;25.92;12.23;;;;;;;9.51;100.00;102545.53;5074136;28;20064;-51
2022/01/12 01:43:37;;;;;;;23.70;10.93;;;;;;;9.53;100.00;102554.34;5075241;28;20079;-51
2022/01/12 01:54:23;;;;;;;20.30;9.68;;;;;;;9.59;100.00;102548.00;5074266;28;20063;-49
2022/01/12 01:56:51;;;;;;;17.67;9.57;;;;;;;9.54;100.00;102558.72;5073306;28;20053;-50
2022/01/12 01:59:19;;;;;;;17.52;9.38;;;;;;;9.54;100.00;102556.06;5074527;28;20385;-50
2022/01/12 02:01:48;;;;;;;18.70;9.60;;;;;;;9.54;100.00;102558.72;5074801;28;20061;-49
2022/01/12 02:04:17;;;;;;;18.27;8.52;;;;;;;9.57;100.00;102556.00;5075043;28;20083;-51
2022/01/12 02:06:45;;;;;;;14.02;7.40;;;;;;;9.57;100.00;102558.66;5074208;28;20434;-49
2022/01/12 02:09:16;;;;;;;15.50;7.88;;;;;;;9.55;100.00;102555.16;5074535;28;20069;-49
2022/01/12 02:11:44;;;;;;;17.90;7.85;;;;;;;9.57;100.00;102556.00;5073654;28;20061;-50
2022/01/12 02:14:12;;;;;;;14.27;7.70;;;;;;;9.57;100.00;102561.28;5073306;28;20052;-52
2022/01/12 02:16:54;;;;;;;13.40;6.60;;;;;;;9.58;100.00;102557.75;5074941;28;20053;-49
2022/01/12 02:19:47;;;;;;;11.88;5.57;;;;;;;9.60;100.00;102555.94;5073555;28;20062;-50
2022/01/12 02:36:17;;;;;;;9.40;4.72;;;;;;;9.64;100.00;102572.63;5077260;28;20078;-49
2022/01/12 02:41:44;;;;;;;8.48;4.55;;;;;;;9.56;100.00;102570.13;5035260;28;20057;-50
2022/01/12 02:55:16;;;;;;;8.27;4.35;;;;;;;9.59;100.00;102575.38;5077690;28;20057;-51
2022/01/12 02:57:44;;;;;;;7.90;3.95;;;;;;;9.58;100.00;102578.94;5076790;28;20079;-51
2022/01/12 03:00:15;;;;;;;9.35;4.13;;;;;;;9.58;100.00;102571.00;5076943;28;20053;-49
2022/01/12 03:02:50;;;;;;;14.05;4.72;;;;;;;9.62;100.00;102575.28;5077199;28;20435;-48
2022/01/12 03:05:32;;;;;;;8.82;4.45;;;;;;;9.62;100.00;102579.72;5077678;28;20086;-50
2022/01/12 03:08:09;;;;;;;34.47;6.32;;;;;;;9.62;100.00;102580.59;5077724;28;20476;-51
2022/01/12 03:10:39;;;;;;;17.05;5.70;;;;;;;9.66;100.00;102582.25;5076562;28;20064;-51
2022/01/12 03:13:07;;;;;;;12.07;5.32;;;;;;;9.63;100.00;102574.41;5076934;28;20056;-49
2022/01/12 03:15:40;;;;;;;13.27;5.32;;;;;;;9.62;100.00;102580.59;5077523;28;20063;-51
2022/01/12 03:18:08;;;;;;;22.10;5.25;;;;;;;9.67;100.00;102584.00;5077852;28;20056;-51
2022/01/12 03:20:38;;;;;;;11.07;4.68;;;;;;;9.61;100.00;102584.13;5076921;28;20053;-50
2022/01/12 03:23:06;;;;;;;13.73;5.15;;;;;;;9.62;100.00;102585.91;5076566;28;20075;-49
2022/01/12 03:25:35;;;;;;;27.17;5.05;;;;;;;9.65;100.00;102577.00;5076898;28;20052;-51
2022/01/12 03:28:07;;;;;;;42.40;6.05;;;;;;;9.67;100.00;102584.00;5077590;28;20053;-51
2022/01/12 03:30:46;;;;;;;49.13;5.10;;;;;;;9.64;100.00;102573.47;5076767;28;20496;-49
2022/01/12 03:33:30;;;;;;;18.90;3.03;;;;;;;9.63;100.00;102585.00;5076062;28;20066;-51
2022/01/12 03:36:23;;;;;;;9.65;3.25;;;;;;;9.60;100.00;102597.44;5074762;28;20060;-49
2022/01/12 03:38:53;;;;;;;8.68;3.72;;;;;;;9.63;100.00;102595.59;5076034;28;20053;-49
2022/01/12 03:41:21;;;;;;;23.63;4.13;;;;;;;9.60;100.00;102598.31;5076191;28;20057;-49
2022/01/12 03:43:55;;;;;;;8.93;4.82;;;;;;;9.59;100.00;102601.88;5075955;28;20091;-51
2022/01/12 03:46:27;;;;;;;16.47;6.40;;;;;;;9.59;100.00;102601.88;5074771;28;20063;-50
2022/01/12 03:48:55;;;;;;;11.63;6.33;;;;;;;9.57;100.00;102602.81;5077046;28;20052;-51
2022/01/12 03:51:23;;;;;;;16.73;7.63;;;;;;;9.57;100.00;102601.03;5075777;28;20052;-52
2022/01/12 03:53:51;;;;;;;16.52;8.63;;;;;;;9.60;100.00;102611.56;5075746;28;20053;-49
2022/01/12 03:56:19;;;;;;;21.10;10.82;;;;;;;9.65;100.00;102625.56;5076268;28;20405;-49
2022/01/12 03:58:48;;;;;;;18.40;10.00;;;;;;;9.64;100.00;102621.16;5076161;28;20055;-51
2022/01/12 04:01:17;;;;;;;20.27;10.30;;;;;;;9.64;100.00;102626.47;5075851;28;20053;-49
2022/01/12 04:03:57;;;;;;;25.17;10.77;;;;;;;9.67;100.00;102631.69;5076395;28;20064;-51
2022/01/12 04:09:23;;;;;;;19.65;8.50;;;;;;;9.62;100.00;102633.59;5076906;28;20538;-51
2022/01/12 04:11:51;;;;;;;13.77;9.13;;;;;;;9.63;100.00;102645.06;5075922;28;20079;-51
2022/01/12 04:14:19;;;;;;;19.83;10.55;;;;;;;9.61;100.00;102639.78;5076194;28;20053;-51
2022/01/12 04:16:49;;;;;;;20.65;10.77;;;;;;;9.57;100.00;102630.19;5075494;28;20053;-51
2022/01/12 04:19:17;;;;;;;20.02;11.55;;;;;;;9.58;100.00;102637.25;5075828;28;20056;-51
2022/01/12 04:21:48;;;;;;;17.00;8.90;;;;;;;9.60;100.00;102646.00;5075414;28;20060;-51
2022/01/12 04:24:17;;;;;;;26.33;11.80;;;;;;;9.56;100.00;102644.31;5075964;28;20056;-50
2022/01/12 04:26:45;;;;;;;24.83;11.25;;;;;;;9.61;100.00;102647.72;5075618;28;20289;-50
2022/01/12 04:29:14;;;;;;;19.35;9.90;;;;;;;9.64;100.00;102642.38;5075525;28;20069;-50
2022/01/12 04:31:42;;;;;;;19.98;10.50;;;;;;;9.63;100.00;102645.94;5075100;28;20053;-49
2022/01/12 04:34:12;;;;;;;20.17;9.93;;;;;;;9.65;100.00;102644.13;5075789;28;20071;-50
2022/01/12 04:36:40;;;;;;;12.63;7.78;;;;;;;9.65;100.00;102644.13;5075677;28;20504;-51
2022/01/12 04:39:08;;;;;;;17.88;8.82;;;;;;;9.58;100.00;102639.00;5075392;28;20052;-49
2022/01/12 04:41:36;;;;;;;14.85;7.80;;;;;;;9.52;100.00;102631.22;5074995;28;20447;-50
2022/01/12 04:44:07;;;;;;;13.02;6.90;;;;;;;9.50;100.00;102628.59;5075896;28;20064;-50
2022/01/12 04:46:49;;;;;;;9.80;5.47;;;;;;;9.48;100.00;102631.28;5074364;28;20083;-50
2022/01/12 04:49:47;;;;;;;10.27;5.05;;;;;;;9.52;100.00;102642.69;5074984;28;20052;-51
2022/01/12 04:52:15;;;;;;;11.07;6.18;;;;;;;9.51;100.00;102637.41;5074517;28;20116;-51
2022/01/12 04:54:44;;;;;;;9.85;6.07;;;;;;;9.51;100.00;102634.75;5075969;28;20060;-51
2022/01/12 04:57:12;;;;;;;10.18;6.55;;;;;;;9.55;100.00;102632.00;5075025;28;20056;-49
2022/01/12 04:59:53;;;;;;;11.95;7.22;;;;;;;9.56;100.00;102633.72;5074715;28;20067;-50
2022/01/12 05:07:59;;;;;;;20.70;10.00;;;;;;;9.46;100.00;102637.50;5074475;28;20301;-51
2022/01/12 05:13:13;;;;;;;16.38;9.13;;;;;;;9.36;100.00;102639.50;5074157;28;20056;-49
2022/01/12 05:15:41;;;;;;;21.67;10.95;;;;;;;9.32;100.00;102637.84;5074953;28;20057;-51
2022/01/12 05:18:09;;;;;;;16.27;8.93;;;;;;;9.34;100.00;102637.81;5074955;28;20527;-50
2022/01/12 05:20:39;;;;;;;28.48;10.00;;;;;;;9.28;100.00;102639.69;5074404;28;20420;-50
2022/01/12 05:23:07;;;;;;;15.50;9.77;;;;;;;9.28;100.00;102647.63;5074625;28;20064;-49
2022/01/12 05:25:35;;;;;;;17.00;8.93;;;;;;;9.30;100.00;102651.13;5074332;28;20056;-51
2022/01/12 05:28:04;;;;;;;23.42;10.82;;;;;;;9.26;100.00;102646.81;5074878;28;20063;-50
2022/01/12 05:30:32;;;;;;;19.80;9.75;;;;;;;9.27;100.00;102652.97;5074248;28;20062;-49
2022/01/12 05:33:01;;;;;;;15.95;7.85;;;;;;;9.31;100.00;102649.31;5074993;28;20496;-51
2022/01/12 05:35:32;;;;;;;15.40;8.73;;;;;;;9.30;100.00;102643.16;5074241;28;20063;-51
2022/01/12 05:38:04;;;;;;;23.10;9.73;;;;;;;9.29;100.00;102641.41;5074698;28;20053;-49
2022/01/12 05:40:32;;;;;;;16.48;9.63;;;;;;;9.26;100.00;102646.81;5074813;28;20472;-51
2022/01/12 05:43:02;;;;;;;12.60;8.13;;;;;;;9.34;100.00;102643.97;5074123;28;20079;-50
2022/01/12 05:45:32;;;;;;;13.98;8.15;;;;;;;9.29;100.00;102646.72;5075030;28;20064;-51
2022/01/12 05:50:49;;;;;;;17.83;9.05;;;;;;;9.32;100.00;102655.50;5074989;28;20052;-51
2022/01/12 05:53:19;;;;;;;13.55;6.43;;;;;;;9.29;100.00;102662.59;5074039;28;20068;-50
2022/01/12 05:55:47;;;;;;;16.00;8.30;;;;;;;9.28;100.00;102671.47;5073726;28;20420;-51
2022/01/12 05:58:15;;;;;;;16.38;8.23;;;;;;;9.30;100.00;102664.34;5075172;28;20048;-52
2022/01/12 06:00:43;;;;;;;16.40;8.48;;;;;;;9.27;100.00;102680.31;5078046;28;20052;-49
2022/01/12 06:03:12;;;;;;;17.60;9.25;;;;;;;9.28;100.00;102675.91;5078340;28;20060;-51
2022/01/12 06:05:40;;;;;;;23.55;9.75;;;;;;;9.28;100.00;102676.78;5077757;28;20059;-50
2022/01/12 06:08:08;;;;;;;16.52;10.30;;;;;;;9.29;100.00;102675.84;5079070;28;20052;-51
2022/01/12 06:10:38;;;;;;;21.27;10.27;;;;;;;9.31;100.00;102678.47;5078722;28;20057;-51
2022/01/12 06:13:06;;;;;;;16.67;9.18;;;;;;;9.31;100.00;102694.34;5078639;28;20060;-51
2022/01/12 06:15:34;;;;;;;24.15;10.50;;;;;;;9.26;100.00;102693.59;5077859;28;20056;-50
2022/01/12 06:18:03;;;;;;;21.83;9.95;;;;;;;9.28;100.00;102686.50;5078046;28;20084;-52
2022/01/12 06:20:31;;;;;;;19.35;9.63;;;;;;;9.27;100.00;102684.75;5078035;28;20056;-51
2022/01/12 06:22:59;;;;;;;21.42;8.88;;;;;;;9.34;100.00;102686.34;5078739;28;20068;-51
2022/01/12 06:25:27;;;;;;;18.55;9.65;;;;;;;9.30;100.00;102690.84;5077399;28;20059;-50
2022/01/12 06:28:09;;;;;;;17.90;9.35;;;;;;;9.30;100.00;102696.13;5077986;28;20063;-50
2022/01/12 06:33:23;;;;;;;22.52;10.52;;;;;;;9.27;100.00;102696.19;5077424;28;20060;-50
2022/01/12 06:35:51;;;;;;;14.43;9.15;;;;;;;9.28;100.00;102694.44;5077816;28;20060;-48
2022/01/12 06:38:21;;;;;;;17.33;8.80;;;;;;;9.27;100.00;102693.56;5077916;28;20063;-48
2022/01/12 06:40:49;;;;;;;17.63;9.85;;;;;;;9.27;100.00;102682.97;5077544;28;20052;-49
2022/01/12 06:43:19;;;;;;;17.42;9.48;;;;;;;9.26;100.00;102696.22;5077653;28;20060;-49
2022/01/12 06:45:47;;;;;;;21.40;9.75;;;;;;;9.24;100.00;102701.56;5077197;28;20060;-50
2022/01/12 06:48:16;;;;;;;20.00;9.93;;;;;;;9.22;100.00;102697.22;5077788;28;20106;-51
2022/01/12 06:50:44;;;;;;;20.58;11.68;;;;;;;9.23;100.00;102697.19;5078229;28;20519;-50
2022/01/12 06:53:12;;;;;;;18.67;10.40;;;;;;;9.24;100.00;102684.81;5076879;28;20071;-51
2022/01/12 06:55:40;;;;;;;24.00;12.90;;;;;;;9.24;100.00;102690.09;5076489;28;20052;-49
2022/01/12 06:58:09;;;;;;;17.48;9.38;;;;;;;9.24;100.00;102688.31;5077156;28;20064;-51
2022/01/12 07:00:39;;;;;;;18.92;10.45;;;;;;;9.20;100.00;102694.59;5078021;28;20067;-50
2022/01/12 07:03:07;;;;;;;18.30;9.65;;;;;;;9.21;100.00;102693.72;5078060;28;20054;-52
2022/01/12 07:05:36;;;;;;;20.27;9.05;;;;;;;9.17;100.00;102709.69;5076643;28;20074;-49
2022/01/12 07:08:05;;;;;;;18.50;9.40;;;;;;;9.13;100.00;102716.81;5077022;28;20052;-51
2022/01/12 07:10:33;;;;;;;15.13;8.52;;;;;;;9.10;100.00;102714.25;5077341;28;20064;-51
2022/01/12 07:13:01;;;;;;;17.17;9.20;;;;;;;9.06;100.00;102720.47;5076954;28;20064;-51
2022/01/12 07:15:29;;;;;;;16.42;9.75;;;;;;;9.11;100.00;102721.25;5076396;28;20066;-51
2022/01/12 07:18:04;;;;;;;18.70;9.80;;;;;;;9.11;100.00;102731.84;5077435;28;20052;-52
2022/01/12 07:20:32;;;;;;;16.85;7.85;;;;;;;9.17;100.00;102739.66;5077253;28;20060;-51
2022/01/12 07:23:01;;;;;;;10.98;6.72;;;;;;;9.14;100.00;102739.72;5076875;28;20131;-51
2022/01/12 07:25:29;;;;;;;14.10;7.75;;;;;;;9.21;100.00;102741.38;5077118;28;20052;-51
2022/01/12 07:27:57;;;;;;;16.73;9.00;;;;;;;9.20;100.00;102750.22;5077017;28;20060;-49
2022/01/12 07:30:26;;;;;;;14.90;8.95;;;;;;;9.19;100.00;102745.81;5076669;28;20064;-50
2022/01/12 07:32:54;;;;;;;17.33;8.88;;;;;;;9.19;100.00;102756.41;5076417;28;20064;-51
2022/01/12 07:35:24;;;;;;;12.75;8.15;;;;;;;9.23;100.00;102762.50;5077267;28;20060;-51
2022/01/12 07:37:52;;;;;;;16.95;9.68;;;;;;;9.23;100.00;102765.16;5076300;28;20056;-49
2022/01/12 07:40:20;;;;;;;15.73;8.98;;;;;;;9.22;100.00;102766.94;5076271;28;20056;-49
2022/01/12 07:42:49;;;;;;;11.23;7.85;;;;;;;9.25;100.00;102761.56;5076183;28;20064;-51
2022/01/12 07:45:17;;;;;;;16.10;10.57;;;;;;;9.21;100.00;102759.91;5077095;28;20056;-49
2022/01/12 07:47:46;;;;;;;13.80;8.75;;;;;;;9.24;100.00;102773.06;5076393;28;20052;-51
2022/01/12 07:50:14;;;;;;;13.60;8.65;;;;;;;9.22;100.00;102777.53;5076295;28;20538;-50
2022/01/12 07:52:44;;;;;;;13.77;9.27;;;;;;;9.25;100.00;102782.75;5075930;28;20060;-49
2022/01/12 07:55:12;;;;;;;15.05;8.82;;;;;;;9.27;100.00;102780.09;5075634;28;20053;-50
2022/01/12 07:57:43;;;;;;;13.38;9.10;;;;;;;9.28;100.00;102787.13;5075830;28;20065;-51
2022/01/12 08:00:12;;;;;;;13.05;8.90;;;;;;;9.27;100.00;102791.53;5075609;28;20057;-51
2022/01/12 08:02:40;;;;;;;13.70;9.20;;;;;;;9.28;100.00;102798.59;5076413;28;20053;-51
2022/01/12 08:05:09;;;;;;;14.23;8.68;;;;;;;9.29;100.00;102800.31;5076532;28;20064;-51
2022/01/12 08:07:38;;;;;;;16.00;9.10;;;;;;;9.29;100.00;102816.22;5075717;28;20057;-50
2022/01/12 08:10:10;;;;;;;12.70;9.23;;;;;;;9.24;100.00;102818.09;5075890;28;20056;-51
2022/01/12 08:12:38;;;;;;;13.50;8.85;;;;;;;9.23;100.00;102821.66;5076182;28;20517;-50
2022/01/12 08:15:08;;;;;;;16.25;10.90;;;;;;;9.25;100.00;102822.50;5075268;28;20508;-51
2022/01/12 08:17:36;;;;;;;15.30;10.77;;;;;;;9.18;100.00;102825.28;5076518;28;20060;-51
2022/01/12 08:20:07;;;;;;;19.85;12.73;;;;;;;9.22;100.00;102835.78;5075204;28;20064;-49
2022/01/12 08:22:35;;;;;;;20.88;12.23;;;;;;;9.25;100.00;102838.38;5074987;28;20139;-49
2022/01/12 08:25:05;;;;;;;20.88;11.40;;;;;;;9.24;100.00;102839.28;5075366;28;20058;-51
2022/01/12 08:27:34;;;;;;;22.45;12.55;;;;;;;9.24;100.00;102849.88;5075299;28;20064;-49
2022/01/12 08:30:04;;;;;;;28.65;12.95;;;;;;;9.26;100.00;102858.69;5075526;28;20063;-50
2022/01/12 08:32:32;;;;;;;30.23;14.40;;;;;;;9.24;100.00;102860.44;5075343;28;20552;-50
2022/01/12 08:35:01;;;;;;;33.72;13.25;;;;;;;9.32;100.00;102859.47;5075627;28;20063;-50
2022/01/12 08:37:29;;;;;;;28.52;13.43;;;;;;;9.36;100.00;102869.06;5075082;28;20052;-49
2022/01/12 08:39:57;;;;;;;30.33;14.50;;;;;;;9.33;100.00;102866.47;5075339;28;20067;-49
2022/01/12 08:42:25;;;;;;;27.83;12.82;;;;;;;9.32;100.00;102862.09;5075005;28;20068;-49
2022/01/12 08:44:59;;;;;;;27.80;13.23;;;;;;;9.37;100.00;102881.44;5075561;28;20463;-52
2022/01/12 08:47:27;;;;;;;31.05;13.98;;;;;;;9.36;100.00;102874.38;5074705;28;20052;-51
2022/01/12 08:49:56;;;;;;;27.23;14.00;;;;;;;9.44;100.00;102872.44;5074892;28;20135;-50
2022/01/12 08:52:25;;;;;;;28.02;13.65;;;;;;;9.46;100.00;102883.88;5075413;28;20055;-52
2022/01/12 08:54:53;;;;;;;32.80;14.15;;;;;;;9.52;100.00;102881.13;5075286;28;20071;-49
2022/01/12 08:57:22;;;;;;;60.13;14.75;;;;;;;9.45;100.00;102884.81;5074764;28;20504;-50
2022/01/12 08:59:50;;;;;;;28.55;14.70;;;;;;;9.45;100.00;102884.81;5075496;28;20052;-50
2022/01/12 09:02:20;;;;;;;46.33;15.68;;;;;;;9.40;100.00;102897.28;5074933;28;20067;-48
2022/01/12 09:04:48;;;;;;;43.47;13.80;;;;;;;9.39;100.00;102885.78;5075732;28;20057;-50
2022/01/12 09:07:17;;;;;;;27.85;12.95;;;;;;;9.39;100.00;102896.38;5074871;28;20059;-50
2022/01/12 09:09:45;;;;;;;23.45;13.40;;;;;;;9.38;100.00;102891.09;5074806;28;20496;-50
2022/01/12 09:12:14;;;;;;;27.52;12.60;;;;;;;9.43;100.00;102905.13;5075040;28;20056;-50
2022/01/12 09:14:42;;;;;;;21.50;10.43;;;;;;;9.54;100.00;102899.66;5074092;28;20057;-50
2022/01/12 09:17:15;;;;;;;23.15;10.90;;;;;;;9.69;100.00;102898.47;5074717;28;20504;-51
2022/01/12 09:19:46;;;;;;;73.65;9.98;;;;;;;9.80;100.00;102896.44;5074146;28;20066;-52
2022/01/12 09:22:16;;;;;;;47.30;9.90;;;;;;;9.96;100.00;102897.00;5074127;28;20106;-50
2022/01/12 09:24:46;;;;;;;27.88;9.43;;;;;;;10.10;100.00;102899.34;5074954;28;20060;-50
2022/01/12 09:27:15;;;;;;;48.58;9.43;;;;;;;10.29;100.00;102899.81;5074039;28;20143;-52
2022/01/12 09:29:43;;;;;;;54.03;11.35;;;;;;;10.48;100.00;102908.28;5074199;28;20500;-50
2022/01/12 09:32:12;;;;;;;41.70;9.77;;;;;;;10.35;100.00;102905.00;5074568;28;20404;-52
2022/01/12 09:34:41;;;;;;;71.78;8.65;;;;;;;10.22;100.00;102905.28;5073878;28;20053;-50
2022/01/12 09:37:11;;;;;;;42.38;9.00;;;;;;;10.17;100.00;102909.81;5075230;28;20052;-52
2022/01/12 09:39:39;;;;;;;25.27;8.45;;;;;;;10.19;100.00;102915.09;5074169;28;20052;-50
2022/01/12 09:42:08;;;;;;;27.55;8.77;;;;;;;10.43;100.00;102918.13;5074089;28;20095;-48
2022/01/12 09:44:38;;;;;;;19.08;8.82;;;;;;;10.71;100.00;102923.66;5073811;28;20048;-50
2022/01/12 09:47:07;;;;;;;24.52;8.10;;;;;;;10.83;100.00;102918.03;5074379;28;20067;-49
2022/01/12 09:49:36;;;;;;;15.80;8.13;;;;;;;10.77;100.00;102921.69;5074313;28;20056;-50
2022/01/12 09:52:05;;;;;;;11.32;7.00;;;;;;;10.88;100.00;102916.13;5074019;28;20139;-51
2022/01/12 09:54:36;;;;;;;12.68;6.97;;;;;;;10.64;100.00;102924.69;5074955;28;20059;-50
2022/01/12 09:57:05;;;;;;;21.70;8.77;;;;;;;10.59;100.00;102924.78;5074972;28;20056;-49
2022/01/12 09:59:33;;;;;;;15.27;7.70;;;;;;;10.46;100.00;102931.31;5074304;28;20056;-49
2022/01/12 10:02:01;;;;;;;13.45;8.30;;;;;;;10.29;100.00;102931.63;5075110;28;20052;-50
2022/01/12 10:04:31;;;;;;;23.80;8.50;;;;;;;10.33;100.00;102939.53;5075278;28;20102;-50
2022/01/12 10:07:01;;;;;;;11.95;7.45;;;;;;;10.44;100.00;102941.97;5074135;28;20071;-48
2022/01/12 10:09:35;;;;;;;11.70;6.75;;;;;;;10.53;100.00;102935.56;5074318;28;20064;-49
2022/01/12 10:12:05;;;;;;;9.77;6.50;;;;;;;10.60;100.00;102929.19;5074642;28;20064;-48
2022/01/12 10:14:45;;;;;;;11.57;7.10;;;;;;;10.71;100.00;102940.44;5073587;28;20504;-49
2022/01/12 10:17:14;;;;;;;12.98;7.68;;;;;;;10.78;100.00;102947.34;5074906;28;20053;-48
2022/01/12 10:19:43;;;;;;;10.65;7.15;;;;;;;10.81;100.00;102950.81;5074576;28;20083;-49
2022/01/12 10:22:15;;;;;;;7.90;5.70;;;;;;;10.64;100.00;102949.47;5073770;28;20641;-49
2022/01/12 10:24:46;;;;;;;9.93;5.60;;;;;;;10.52;100.00;102960.34;5074578;28;20409;-49
2022/01/12 10:27:15;;;;;;;10.25;6.35;;;;;;;10.22;100.00;102958.31;5073682;28;20052;-49
2022/01/12 10:29:45;;;;;;;10.57;6.38;;;;;;;10.24;100.00;102966.25;5073701;28;20076;-49
2022/01/12 10:32:18;;;;;;;11.40;7.25;;;;;;;10.20;100.00;102960.13;5074324;28;20063;-50
2022/01/12 10:34:48;;;;;;;10.77;6.90;;;;;;;10.12;100.00;102961.19;5074478;28;20063;-51
2022/01/12 10:37:17;;;;;;;11.52;7.63;;;;;;;10.17;100.00;102960.19;5074745;28;20067;-48
2022/01/12 10:39:49;;;;;;;13.05;8.60;;;;;;;10.06;100.00;102961.34;5073891;28;20056;-50
2022/01/12 10:42:19;;;;;;;15.30;9.00;;;;;;;9.93;100.00;102961.56;5073333;28;20071;-48
2022/01/12 10:44:49;;;;;;;18.67;9.68;;;;;;;9.78;100.00;102973.34;5076066;28;20052;-49
2022/01/12 10:47:20;;;;;;;19.70;11.43;;;;;;;9.70;100.00;102970.00;5078313;28;20440;-49
2022/01/12 10:49:59;;;;;;;17.98;11.35;;;;;;;9.65;100.00;102974.50;5078092;28;20063;-50
2022/01/12 10:52:30;;;;;;;26.55;13.65;;;;;;;9.67;100.00;102962.97;5078286;28;20060;-48
2022/01/12 10:55:02;;;;;;;19.55;12.32;;;;;;;9.81;100.00;102975.06;5076652;28;20057;-48
2022/01/12 10:57:32;;;;;;;17.38;11.52;;;;;;;9.81;100.00;102975.06;5077251;28;20507;-53
2022/01/12 11:00:18;;;;;;;16.20;11.40;;;;;;;9.76;100.00;102974.28;5077008;28;20057;-50
2022/01/12 11:02:48;;;;;;;19.48;12.35;;;;;;;9.73;100.00;102979.66;5076960;28;20095;-50
2022/01/12 11:05:17;;;;;;;18.40;11.35;;;;;;;9.71;100.00;102965.56;5077197;28;20052;-49
2022/01/12 11:07:45;;;;;;;16.77;10.95;;;;;;;9.71;100.00;102965.56;5077675;28;20060;-50
2022/01/12 11:10:16;;;;;;;17.73;10.77;;;;;;;9.74;100.00;102965.50;5076886;28;20057;-48
2022/01/12 11:12:46;;;;;;;18.40;11.38;;;;;;;9.79;100.00;102963.63;5077353;28;20087;-50
2022/01/12 11:15:16;;;;;;;20.02;11.70;;;;;;;9.71;100.00;102960.25;5077658;28;20053;-48
2022/01/12 11:17:45;;;;;;;28.92;12.40;;;;;;;9.61;100.00;102960.41;5077196;28;20060;-52
2022/01/12 11:20:17;;;;;;;22.35;12.35;;;;;;;9.67;100.00;102955.00;5076922;28;20102;-53
2022/01/12 11:22:56;;;;;;;24.35;12.95;;;;;;;9.51;100.00;102958.84;5077393;28;20515;-51
2022/01/12 11:25:26;;;;;;;26.52;13.98;;;;;;;9.50;100.00;102959.78;5076624;28;20048;-51
2022/01/12 11:28:10;;;;;;;24.30;12.85;;;;;;;9.62;100.00;102946.28;5076282;28;20060;-50
2022/01/12 11:30:39;;;;;;;23.02;13.23;;;;;;;9.63;100.00;102942.75;5077281;28;20408;-49
2022/01/12 11:33:09;;;;;;;20.77;12.80;;;;;;;9.76;100.00;102943.34;5076301;28;20053;-50
2022/01/12 11:35:40;;;;;;;28.40;14.23;;;;;;;9.90;100.00;102940.44;5077358;28;20056;-49
2022/01/12 11:38:09;;;;;;;20.98;12.73;;;;;;;10.07;100.00;102941.84;5077779;28;20056;-50
2022/01/12 11:40:40;;;;;;;25.77;14.07;;;;;;;9.87;100.00;102945.81;5076237;28;20052;-48
2022/01/12 11:43:19;;;;;;;22.30;14.57;;;;;;;9.97;100.00;102939.41;5077171;28;20366;-49
2022/01/12 11:46:01;;;;;;;23.23;14.38;;;;;;;9.91;100.00;102941.31;5077378;28;20084;-49
2022/01/12 11:48:34;;;;;;;30.50;16.05;;;;;;;9.80;100.00;102945.06;5076097;28;20060;-49
2022/01/12 11:51:02;;;;;;;27.20;15.73;;;;;;;9.91;100.00;102947.47;5077313;28;20083;-49
2022/01/12 11:53:31;;;;;;;29.65;16.00;;;;;;;10.10;100.00;102944.44;5077170;28;20056;-50
2022/01/12 11:56:17;;;;;;;23.42;14.38;;;;;;;10.36;100.00;102942.13;5074817;28;20056;-51
2022/01/12 11:58:56;;;;;;;20.85;11.98;;;;;;;10.31;100.00;102946.63;5076234;28;20060;-48
2022/01/12 12:01:35;;;;;;;19.80;11.82;;;;;;;10.35;100.00;102948.31;5075932;28;20490;-50
2022/01/12 12:04:05;;;;;;;22.92;11.15;;;;;;;10.23;100.00;102954.75;5076525;28;20493;-50
2022/01/12 12:06:34;;;;;;;17.17;9.75;;;;;;;10.28;100.00;102959.97;5076050;28;20063;-50
2022/01/12 12:09:06;;;;;;;18.75;10.52;;;;;;;10.37;100.00;102962.44;5075724;28;20061;-49
2022/01/12 12:11:35;;;;;;;17.33;10.18;;;;;;;10.39;100.00;102960.63;5076334;28;20067;-50
2022/01/12 12:14:06;;;;;;;13.38;8.20;;;;;;;10.47;100.00;102967.53;5075418;28;20516;-50
2022/01/12 12:16:35;;;;;;;15.82;7.55;;;;;;;10.47;100.00;102962.22;5075212;28;20053;-48
2022/01/12 12:19:05;;;;;;;14.38;7.35;;;;;;;10.39;100.00;102957.13;5076373;28;20057;-48
2022/01/12 12:21:36;;;;;;;12.57;8.48;;;;;;;10.33;100.00;102963.41;5075132;28;20106;-51
2022/01/12 12:24:11;;;;;;;14.80;7.65;;;;;;;10.24;100.00;102960.94;5075445;28;20067;-50
2022/01/12 12:26:46;;;;;;;12.60;8.18;;;;;;;10.20;100.00;102964.56;5075922;28;20087;-50
2022/01/12 12:29:18;;;;;;;16.42;8.75;;;;;;;10.18;100.00;102963.72;5075886;28;20059;-49
2022/01/12 12:31:48;;;;;;;15.07;8.82;;;;;;;10.03;100.00;102963.13;5075241;28;20056;-49
2022/01/12 12:34:24;;;;;;;14.20;7.85;;;;;;;10.03;100.00;102960.47;5075255;28;20052;-51